SLLP/LPB METAR and TAF weather

Enter ICAO airport designator
Station Type Date Time Source
SLLP METAR 2020/01/21 09:00 UTC NOAA

SLLP 210900Z 26006KT 4000 -RA VCFG FEW004 SCT010 FEW017CB BKN070 07/06 Q1036


Station Type Date Time Source
SLLP Decoded METAR 2020/01/21 09:00 UTC NOAA

La Paz / Alto, Bolivia (SLLP) 16-31S 068-11W 4038M
Jan 21, 2020 - 04:00 AM EST / 2020.01.21 0900 UTC
Wind: from the W (260 degrees) at 7 MPH (6 KT):0
Visibility: 2 mile(s):0
Sky conditions: mostly cloudy
Weather: light rain; fog in the vicinity; Cumulonimbus clouds observed
Temperature: 44 F (7 C)
Dew Point: 42 F (6 C)
Relative Humidity: 93%
Pressure (altimeter): 30.59 in. Hg (1036 hPa)
ob: SLLP 210900Z 26006KT 4000 -RA VCFG FEW004 SCT010 FEW017CB BKN070 07/06 Q1036
cycle: 9

Station Type Date Time Source
SLLP TAF 2020/01/21 06:45 UTC NOAA

TAF SLLP 210445Z 2106/2206 06007KT 9999 SCT010 FEW017CB TX14/2120Z TN05/2110Z PROB30
TEMPO 2107/2110 2000 BR BKN008
BECMG 2112/2115 13010KT 9999 NSW
TEMPO 2116/2120 3000 TSRA
BECMG 2123/2203 3000E VCFG

Example: see airport list